createdAt,value
2019-02-25T00:00:07.618Z,2.99
2019-02-25T00:01:07.601Z,3.02
2019-02-25T00:02:07.586Z,2.93
2019-02-25T00:03:07.572Z,3
2019-02-25T00:04:07.554Z,2.96
2019-02-25T00:05:07.538Z,2.97
2019-02-25T00:06:07.525Z,2.95
2019-02-25T00:07:07.506Z,2.99
2019-02-25T00:08:07.495Z,3
2019-02-25T00:09:07.477Z,2.96
2019-02-25T00:10:07.459Z,2.99
2019-02-25T00:11:07.440Z,2.95
2019-02-25T00:12:07.428Z,3.02
2019-02-25T00:13:07.425Z,2.96
2019-02-25T00:14:07.395Z,2.93
2019-02-25T00:15:07.381Z,2.99
2019-02-25T00:16:09.381Z,2.93
2019-02-25T00:17:07.346Z,2.92
2019-02-25T00:18:07.336Z,2.95
2019-02-25T00:19:07.317Z,2.93
2019-02-25T00:20:07.303Z,2.99
2019-02-25T00:21:07.294Z,2.95
2019-02-25T00:22:07.268Z,2.95
2019-02-25T00:23:07.256Z,2.92
2019-02-25T00:24:07.235Z,2.92
2019-02-25T00:25:07.232Z,3
2019-02-25T00:26:07.284Z,2.93
2019-02-25T00:27:07.190Z,2.93
2019-02-25T00:28:07.176Z,2.93
2019-02-25T00:29:07.158Z,2.93
2019-02-25T00:30:07.142Z,2.97
2019-02-25T00:31:06.882Z,3.05
2019-02-25T00:32:07.111Z,3.02
2019-02-25T00:33:07.092Z,2.96
2019-02-25T00:34:07.083Z,3.08
2019-02-25T00:35:07.061Z,2.99
2019-02-25T00:36:07.048Z,3
2019-02-25T00:37:07.031Z,2.93
2019-02-25T00:38:07.021Z,2.95
2019-02-25T00:39:06.999Z,2.97
2019-02-25T00:40:06.989Z,2.92
2019-02-25T00:41:06.967Z,2.93
2019-02-25T00:42:06.955Z,2.87
2019-02-25T00:43:06.938Z,2.85
2019-02-25T00:44:06.919Z,2.89
2019-02-25T00:45:06.906Z,2.82
2019-02-25T00:46:06.899Z,2.87
2019-02-25T00:47:06.871Z,2.82
2019-02-25T00:48:06.861Z,2.99
2019-02-25T00:49:06.842Z,2.85
2019-02-25T00:50:06.829Z,2.9
2019-02-25T00:51:06.826Z,2.79
2019-02-25T00:52:06.790Z,2.85
2019-02-25T00:53:06.814Z,2.85
2019-02-25T00:54:06.761Z,2.84
2019-02-25T00:55:06.748Z,2.82
2019-02-25T00:56:06.728Z,2.85
2019-02-25T00:57:08.866Z,2.87
2019-02-25T00:58:06.700Z,2.84
2019-02-25T00:59:06.680Z,2.84
2019-02-25T01:00:06.713Z,2.81
2019-02-25T01:01:06.649Z,2.84
2019-02-25T01:02:06.639Z,2.84
2019-02-25T01:03:06.620Z,2.79
2019-02-25T01:04:06.608Z,2.87
2019-02-25T01:05:06.596Z,2.84
2019-02-25T01:06:06.574Z,2.77
2019-02-25T01:07:06.554Z,2.84
2019-02-25T01:08:07.780Z,2.84
2019-02-25T01:09:06.529Z,2.87
2019-02-25T01:10:06.505Z,2.84
2019-02-25T01:11:06.504Z,2.89
2019-02-25T01:12:06.472Z,2.84
2019-02-25T01:13:06.462Z,2.77
2019-02-25T01:14:06.451Z,2.84
2019-02-25T01:15:06.426Z,2.81
2019-02-25T01:16:06.420Z,2.82
2019-02-25T01:17:06.393Z,2.84
2019-02-25T01:18:06.382Z,2.79
2019-02-25T01:19:06.367Z,2.85
2019-02-25T01:20:06.351Z,2.82
2019-02-25T01:21:06.338Z,2.79
2019-02-25T01:22:06.323Z,2.82
2019-02-25T01:23:06.306Z,2.84
2019-02-25T01:24:06.288Z,2.81
2019-02-25T01:25:06.288Z,2.81
2019-02-25T01:26:06.249Z,2.79
2019-02-25T01:27:06.238Z,2.69
2019-02-25T01:28:06.220Z,2.72
2019-02-25T01:29:06.203Z,2.67
2019-02-25T01:30:06.185Z,2.72
2019-02-25T01:31:06.172Z,2.69
2019-02-25T01:32:06.170Z,2.75
2019-02-25T01:33:06.144Z,2.77
2019-02-25T01:34:06.123Z,2.74
2019-02-25T01:35:06.131Z,2.69
2019-02-25T01:36:06.093Z,2.64
2019-02-25T01:37:06.072Z,2.69
2019-02-25T01:38:06.061Z,2.67
2019-02-25T01:39:06.041Z,2.69
2019-02-25T01:40:06.029Z,2.67
2019-02-25T01:41:06.015Z,2.54
2019-02-25T01:42:05.993Z,2.67
2019-02-25T01:43:05.977Z,2.54
2019-02-25T01:44:05.966Z,2.59
2019-02-25T01:45:05.959Z,2.63
2019-02-25T01:46:05.931Z,2.63
2019-02-25T01:47:05.918Z,2.59
2019-02-25T01:48:05.896Z,2.54
2019-02-25T01:49:05.882Z,2.63
2019-02-25T01:50:05.867Z,2.54
2019-02-25T01:51:05.852Z,2.61
2019-02-25T01:52:05.831Z,2.49
2019-02-25T01:53:05.838Z,2.59
2019-02-25T01:54:05.803Z,2.57
2019-02-25T01:55:05.796Z,2.6
2019-02-25T01:56:05.768Z,2.56
2019-02-25T01:57:05.756Z,2.6
2019-02-25T01:58:05.747Z,2.52
2019-02-25T01:59:05.719Z,2.41
2019-02-25T02:00:05.704Z,2.56
2019-02-25T02:01:05.691Z,2.45
2019-02-25T02:02:05.673Z,2.48
2019-02-25T02:03:05.653Z,2.38
2019-02-25T02:04:05.637Z,2.42
2019-02-25T02:05:05.622Z,2.41
2019-02-25T02:06:05.617Z,2.36
2019-02-25T02:07:05.593Z,2.36
2019-02-25T02:08:05.573Z,2.42
2019-02-25T02:09:05.560Z,2.39
2019-02-25T02:10:05.543Z,2.39
2019-02-25T02:11:05.522Z,2.35
2019-02-25T02:12:05.508Z,2.27
2019-02-25T02:13:13.881Z,2.3
2019-02-25T02:14:05.477Z,2.24
2019-02-25T02:15:05.460Z,2.24
2019-02-25T02:16:05.442Z,2.2
2019-02-25T02:17:05.435Z,2.14
2019-02-25T02:18:05.427Z,2.16
2019-02-25T02:19:05.400Z,2.12
2019-02-25T02:20:05.387Z,2.18
2019-02-25T02:21:05.367Z,2.12
2019-02-25T02:22:05.112Z,2.1
2019-02-25T02:23:05.334Z,2.14
2019-02-25T02:24:05.324Z,2.03
2019-02-25T02:25:05.302Z,2.09
2019-02-25T02:26:05.279Z,2.06
2019-02-25T02:27:05.271Z,2.14
2019-02-25T02:28:05.248Z,2.12
2019-02-25T02:29:05.232Z,2.1
2019-02-25T02:30:05.232Z,2.09
2019-02-25T02:31:05.206Z,2.05
2019-02-25T02:32:05.190Z,2.06
2019-02-25T02:33:05.202Z,2.02
2019-02-25T02:34:05.152Z,1.99
2019-02-25T02:35:05.283Z,2
2019-02-25T02:36:05.120Z,2.02
2019-02-25T02:37:05.104Z,1.93
2019-02-25T02:38:05.087Z,2.02
2019-02-25T02:39:05.077Z,1.99
2019-02-25T02:40:05.213Z,1.93
2019-02-25T02:41:05.049Z,1.93
2019-02-25T02:42:05.020Z,2.05
2019-02-25T02:43:05.003Z,1.99
2019-02-25T02:44:04.991Z,1.99
2019-02-25T02:45:05.065Z,1.93
2019-02-25T02:46:05.003Z,1.95
2019-02-25T02:47:04.936Z,1.9
2019-02-25T02:48:04.927Z,1.99
2019-02-25T02:49:04.965Z,1.93
2019-02-25T02:50:05.013Z,1.9
2019-02-25T02:51:04.891Z,1.95
2019-02-25T02:52:04.853Z,2.03
2019-02-25T02:53:04.902Z,2.07
2019-02-25T02:54:04.825Z,2.03
2019-02-25T02:55:04.944Z,2
2019-02-25T02:56:04.797Z,2.07
2019-02-25T02:57:04.777Z,2.06
2019-02-25T02:58:04.763Z,2.12
2019-02-25T02:59:04.737Z,2.1
2019-02-25T03:00:04.722Z,2.16
2019-02-25T03:01:04.707Z,2.2
2019-02-25T03:02:04.689Z,2.21
2019-02-25T03:03:04.673Z,2.27
2019-02-25T03:04:04.660Z,2.23
2019-02-25T03:05:04.642Z,2.27
2019-02-25T03:06:04.628Z,2.35
2019-02-25T03:07:04.604Z,2.36
2019-02-25T03:08:04.592Z,2.41
2019-02-25T03:09:04.581Z,2.39
2019-02-25T03:10:04.566Z,2.41
2019-02-25T03:11:04.541Z,2.42
2019-02-25T03:12:04.527Z,2.45
2019-02-25T03:13:04.265Z,2.38
2019-02-25T03:14:04.494Z,2.39
2019-02-25T03:15:04.474Z,2.38
2019-02-25T03:16:04.467Z,2.52
2019-02-25T03:17:04.213Z,2.52
2019-02-25T03:18:04.435Z,2.35
2019-02-25T03:19:04.407Z,2.53
2019-02-25T03:20:04.403Z,2.49
2019-02-25T03:21:04.408Z,2.38
2019-02-25T03:22:04.363Z,2.54
2019-02-25T03:23:04.341Z,2.52
2019-02-25T03:24:04.341Z,2.59
2019-02-25T03:25:04.320Z,2.49
2019-02-25T03:26:04.295Z,2.49
2019-02-25T03:27:04.280Z,2.53
2019-02-25T03:28:04.261Z,2.54
2019-02-25T03:29:04.257Z,2.53
2019-02-25T03:30:04.235Z,2.53
2019-02-25T03:31:04.335Z,2.56
2019-02-25T03:32:04.209Z,2.54
2019-02-25T03:33:04.203Z,2.6
2019-02-25T03:34:04.182Z,2.52
2019-02-25T03:35:04.161Z,2.49
2019-02-25T03:36:04.131Z,2.59
2019-02-25T03:37:04.123Z,2.54
2019-02-25T03:38:04.109Z,2.6
2019-02-25T03:39:04.080Z,2.63
2019-02-25T03:40:04.074Z,2.49
2019-02-25T03:41:04.103Z,2.56
2019-02-25T03:42:04.031Z,2.52
2019-02-25T03:43:04.047Z,2.52
2019-02-25T03:44:04.014Z,2.52
2019-02-25T03:45:03.996Z,2.49
2019-02-25T03:46:03.971Z,2.54
2019-02-25T03:47:03.967Z,2.53
2019-02-25T03:48:03.945Z,2.53
2019-02-25T03:49:03.917Z,2.52
2019-02-25T03:50:03.917Z,2.54
2019-02-25T03:51:03.898Z,2.52
2019-02-25T03:52:03.873Z,2.48
2019-02-25T03:53:03.864Z,2.53
2019-02-25T03:54:03.851Z,2.54
2019-02-25T03:55:03.826Z,2.48
2019-02-25T03:56:03.804Z,2.53
2019-02-25T03:57:03.793Z,2.54
2019-02-25T03:58:03.772Z,2.52
2019-02-25T03:59:03.517Z,2.45
2019-02-25T04:00:03.820Z,2.49
2019-02-25T04:01:03.728Z,2.49
2019-02-25T04:02:03.705Z,2.41
2019-02-25T04:03:03.456Z,2.35
2019-02-25T04:04:03.679Z,2.38
2019-02-25T04:05:03.664Z,2.41
2019-02-25T04:06:03.649Z,2.36
2019-02-25T04:07:03.627Z,2.35
2019-02-25T04:08:03.623Z,2.31
2019-02-25T04:09:03.594Z,2.35
2019-02-25T04:10:03.584Z,2.39
2019-02-25T04:11:03.561Z,2.41
2019-02-25T04:12:03.550Z,2.41
2019-02-25T04:13:03.537Z,2.35
2019-02-25T04:14:03.514Z,2.34
2019-02-25T04:15:03.494Z,2.31
2019-02-25T04:16:03.481Z,2.38
2019-02-25T04:17:03.464Z,2.34
2019-02-25T04:18:03.450Z,2.35
2019-02-25T04:19:03.431Z,2.35
2019-02-25T04:20:03.416Z,2.34
2019-02-25T04:21:03.403Z,2.23
2019-02-25T04:22:03.401Z,2.39
2019-02-25T04:23:03.375Z,2.24
2019-02-25T04:24:03.354Z,2.38
2019-02-25T04:25:03.340Z,2.3
2019-02-25T04:26:03.316Z,2.21
2019-02-25T04:27:03.302Z,2.21
2019-02-25T04:28:03.424Z,2.18
2019-02-25T04:29:03.267Z,2.18
2019-02-25T04:30:03.255Z,2.2
2019-02-25T04:31:03.244Z,2.07
2019-02-25T04:32:03.220Z,2.1
2019-02-25T04:33:03.208Z,2.2
2019-02-25T04:34:03.200Z,2.09
2019-02-25T04:35:03.176Z,2.16
2019-02-25T04:36:03.152Z,2.17
2019-02-25T04:37:03.137Z,2.12
2019-02-25T04:38:05.464Z,2.14
2019-02-25T04:39:03.108Z,2.12
2019-02-25T04:40:03.087Z,2.18
2019-02-25T04:41:02.845Z,2.06
2019-02-25T04:42:03.051Z,2.17
2019-02-25T04:43:03.053Z,2.16
2019-02-25T04:44:03.021Z,2.07
2019-02-25T04:45:03.003Z,2.03
2019-02-25T04:46:02.998Z,2.05
2019-02-25T04:47:02.973Z,2.03
2019-02-25T04:48:02.972Z,2.07
2019-02-25T04:49:02.941Z,2.09
2019-02-25T04:50:02.920Z,1.91
2019-02-25T04:51:02.921Z,2
2019-02-25T04:52:02.889Z,1.99
2019-02-25T04:53:02.874Z,1.93
2019-02-25T04:54:02.862Z,1.93
2019-02-25T04:55:02.841Z,1.93
2019-02-25T04:56:02.824Z,1.88
2019-02-25T04:57:02.805Z,1.9
2019-02-25T04:58:02.799Z,1.9
2019-02-25T04:59:02.773Z,1.91
2019-02-25T05:00:02.755Z,1.91
2019-02-25T05:01:02.804Z,1.91
2019-02-25T05:02:04.693Z,1.91
2019-02-25T05:03:02.706Z,2.05
2019-02-25T05:04:02.691Z,1.99
2019-02-25T05:05:02.704Z,2.05
2019-02-25T05:06:02.661Z,1.98
2019-02-25T05:07:02.645Z,1.99
2019-02-25T05:08:02.622Z,1.9
2019-02-25T05:09:02.603Z,1.98
2019-02-25T05:10:02.754Z,1.91
2019-02-25T05:11:02.578Z,1.87
2019-02-25T05:12:02.560Z,1.91
2019-02-25T05:13:02.549Z,1.88
2019-02-25T05:14:02.520Z,1.9
2019-02-25T05:15:02.504Z,1.91
2019-02-25T05:16:02.491Z,1.86
2019-02-25T05:17:02.474Z,1.84
2019-02-25T05:18:02.456Z,1.83
2019-02-25T05:19:02.487Z,1.77
2019-02-25T05:20:02.589Z,1.76
2019-02-25T05:21:02.411Z,1.8
2019-02-25T05:22:02.394Z,1.77
2019-02-25T05:23:02.378Z,1.81
2019-02-25T05:24:02.355Z,1.76
2019-02-25T05:25:02.337Z,1.8
2019-02-25T05:26:02.321Z,1.81
2019-02-25T05:27:02.306Z,1.76
2019-02-25T05:28:02.306Z,1.72
2019-02-25T05:29:02.270Z,1.69
2019-02-25T05:30:02.268Z,1.68
2019-02-25T05:31:02.246Z,1.77
2019-02-25T05:32:02.222Z,1.69
2019-02-25T05:33:02.214Z,1.7
2019-02-25T05:34:02.191Z,1.69
2019-02-25T05:35:02.173Z,1.65
2019-02-25T05:36:02.165Z,1.55
2019-02-25T05:37:02.145Z,1.62
2019-02-25T05:38:02.126Z,1.6
2019-02-25T05:39:03.521Z,1.58
2019-02-25T05:40:02.089Z,1.62
2019-02-25T05:41:02.116Z,1.59
2019-02-25T05:42:02.052Z,1.6
2019-02-25T05:43:02.043Z,1.63
2019-02-25T05:44:02.022Z,1.59
2019-02-25T05:45:01.769Z,1.52
2019-02-25T05:46:01.989Z,1.51
2019-02-25T05:47:02.000Z,1.59
2019-02-25T05:48:01.956Z,1.55
2019-02-25T05:49:01.940Z,1.55
2019-02-25T05:50:01.919Z,1.52
2019-02-25T05:51:01.922Z,1.54
2019-02-25T05:52:01.916Z,1.51
2019-02-25T05:53:01.870Z,1.48
2019-02-25T05:54:01.857Z,1.48
2019-02-25T05:55:01.839Z,1.42
2019-02-25T05:56:01.823Z,1.42
2019-02-25T05:57:01.798Z,1.44
2019-02-25T05:58:01.787Z,1.42
2019-02-25T05:59:01.765Z,1.37
2019-02-25T06:00:01.771Z,1.44
2019-02-25T06:01:01.754Z,1.4
2019-02-25T06:02:01.717Z,1.42
2019-02-25T06:03:01.715Z,1.48
2019-02-25T06:04:01.689Z,1.48
2019-02-25T06:05:01.673Z,1.45
2019-02-25T06:06:01.647Z,1.4
2019-02-25T06:07:01.635Z,1.41
2019-02-25T06:08:01.631Z,1.5
2019-02-25T06:09:01.599Z,1.44
2019-02-25T06:10:01.580Z,1.42
2019-02-25T06:11:01.563Z,1.51
2019-02-25T06:12:01.553Z,1.41
2019-02-25T06:13:01.539Z,1.52
2019-02-25T06:14:01.510Z,1.42
2019-02-25T06:15:01.570Z,1.52
2019-02-25T06:16:01.485Z,1.51
2019-02-25T06:17:01.219Z,1.54
2019-02-25T06:18:01.200Z,1.47
2019-02-25T06:19:01.429Z,1.55
2019-02-25T06:20:01.412Z,1.58
2019-02-25T06:21:01.402Z,1.55
2019-02-25T06:22:01.381Z,1.62
2019-02-25T06:23:01.383Z,1.59
2019-02-25T06:24:01.342Z,1.65
2019-02-25T06:25:01.332Z,1.66
2019-02-25T06:26:01.351Z,1.69
2019-02-25T06:27:01.301Z,1.77
2019-02-25T06:28:01.278Z,1.77
2019-02-25T06:29:01.267Z,1.83
2019-02-25T06:30:01.242Z,1.73
2019-02-25T06:31:00.980Z,1.83
2019-02-25T06:32:01.207Z,1.87
2019-02-25T06:33:01.197Z,1.91
2019-02-25T06:34:01.176Z,1.9
2019-02-25T06:35:01.164Z,2.14
2019-02-25T06:36:01.166Z,2.12
2019-02-25T06:37:01.162Z,2.21
2019-02-25T06:38:00.879Z,2.25
2019-02-25T06:39:01.094Z,2.38
2019-02-25T06:40:01.084Z,2.41
2019-02-25T06:41:01.058Z,2.38
2019-02-25T06:42:01.043Z,2.61
2019-02-25T06:43:01.028Z,2.56
2019-02-25T06:44:01.013Z,2.63
2019-02-25T06:45:00.998Z,2.66
2019-02-25T06:46:00.979Z,2.84
2019-02-25T06:47:00.964Z,2.82
2019-02-25T06:48:00.951Z,2.97
2019-02-25T06:49:00.928Z,3.06
2019-02-25T06:50:00.731Z,3.1
2019-02-25T06:51:00.899Z,3.18
2019-02-25T06:52:00.880Z,3.23
2019-02-25T06:53:00.867Z,3.36
2019-02-25T06:54:00.852Z,3.28
2019-02-25T06:55:00.834Z,3.32
2019-02-25T06:56:00.821Z,3.42
2019-02-25T06:57:00.808Z,3.51
2019-02-25T06:58:00.789Z,3.6
2019-02-25T06:59:00.774Z,3.66
2019-02-25T07:00:00.789Z,3.75
2019-02-25T07:01:00.759Z,3.91
2019-02-25T07:02:00.737Z,3.98
2019-02-25T07:03:00.727Z,4.14
2019-02-25T07:04:00.702Z,4.18
2019-02-25T07:05:00.460Z,4.37
2019-02-25T07:06:00.675Z,4.45
2019-02-25T07:07:00.660Z,4.51
2019-02-25T07:08:00.650Z,4.72
2019-02-25T07:09:00.629Z,4.77
2019-02-25T07:10:00.616Z,4.99
2019-02-25T07:11:00.608Z,5
2019-02-25T07:12:00.590Z,5.15
2019-02-25T07:13:00.576Z,5.27
2019-02-25T07:14:00.564Z,5.42
2019-02-25T07:15:00.555Z,5.56
2019-02-25T07:16:00.542Z,5.57
2019-02-25T07:17:02.028Z,5.76
2019-02-25T07:18:00.515Z,5.81
2019-02-25T07:19:00.503Z,5.89
2019-02-25T07:20:00.485Z,6.09
2019-02-25T07:21:00.486Z,6.19
2019-02-25T07:22:00.466Z,6.31
2019-02-25T07:23:00.452Z,6.52
2019-02-25T07:24:00.439Z,6.64
2019-02-25T07:25:00.428Z,6.69
2019-02-25T07:26:00.419Z,6.87
2019-02-25T07:27:00.405Z,7.07
2019-02-25T07:28:00.388Z,7.1
2019-02-25T07:29:00.137Z,7.31
2019-02-25T07:30:00.368Z,7.34
2019-02-25T07:31:00.360Z,7.4
2019-02-25T07:32:00.350Z,7.57
2019-02-25T07:33:00.093Z,7.55
2019-02-25T07:34:00.326Z,7.58
2019-02-25T07:35:00.364Z,7.69
2019-02-25T07:36:00.306Z,7.64
2019-02-25T07:37:00.296Z,7.72
2019-02-25T07:38:00.285Z,7.82
2019-02-25T07:39:00.279Z,7.97
2019-02-25T07:40:00.299Z,7.92
2019-02-25T07:41:00.254Z,8.05
2019-02-25T07:42:00.241Z,8.07
2019-02-25T07:43:00.232Z,8.05
2019-02-25T07:44:00.223Z,8.07
2019-02-25T07:45:00.333Z,8.16
2019-02-25T07:46:00.203Z,8.22
2019-02-25T07:47:00.193Z,8.23
2019-02-25T07:48:00.183Z,8.22
2019-02-25T07:49:00.187Z,8.25
2019-02-25T07:50:00.323Z,8.22
2019-02-25T07:51:00.152Z,8.23
2019-02-25T07:52:00.147Z,8.29
2019-02-25T07:53:00.148Z,8.22
2019-02-25T07:54:00.124Z,8.26
2019-02-25T07:55:00.202Z,8.16
2019-02-25T07:56:06.991Z,8.23
2019-02-25T07:57:00.102Z,8.15
2019-02-25T07:58:00.118Z,8.23
2019-02-25T07:59:00.085Z,8.19
2019-02-25T08:00:00.070Z,8.19
2019-02-25T08:01:00.061Z,8.1
2019-02-25T08:02:00.050Z,8.18
2019-02-25T08:03:00.044Z,8.18
2019-02-25T08:04:00.035Z,8.19
2019-02-25T08:05:00.022Z,8.02
2019-02-25T08:06:00.010Z,8.05
2019-02-25T08:07:00.010Z,8.15
2019-02-25T08:07:59.992Z,8.01
2019-02-25T08:08:59.983Z,8.07
2019-02-25T08:09:59.977Z,8.05
2019-02-25T08:10:59.961Z,7.98
2019-02-25T08:11:59.951Z,8.01
2019-02-25T08:12:59.941Z,8
2019-02-25T08:13:59.930Z,8
2019-02-25T08:14:59.923Z,8.02
2019-02-25T08:15:59.914Z,7.98
2019-02-25T08:16:59.900Z,8.05
2019-02-25T08:17:59.895Z,8.07
2019-02-25T08:18:59.877Z,7.98
2019-02-25T08:19:59.863Z,8.07
2019-02-25T08:20:59.853Z,8.07
2019-02-25T08:21:59.850Z,8.04
2019-02-25T08:22:59.831Z,8.07
2019-02-25T08:23:59.824Z,8.02
2019-02-25T08:24:59.814Z,8.05
2019-02-25T08:25:59.803Z,8.05
2019-02-25T08:26:59.792Z,8.05
2019-02-25T08:27:59.774Z,8.04
2019-02-25T08:28:59.770Z,8.02
2019-02-25T08:29:59.756Z,8.05
2019-02-25T08:30:59.742Z,8.02
2019-02-25T08:31:59.730Z,8.01
2019-02-25T08:32:59.721Z,8.15
2019-02-25T08:34:00.332Z,8.15
2019-02-25T08:34:59.713Z,8.16
2019-02-25T08:35:59.688Z,8.16
2019-02-25T08:37:07.069Z,8.1
2019-02-25T08:37:59.663Z,8.15
2019-02-25T08:38:59.656Z,8.29
2019-02-25T08:39:59.660Z,8.2
2019-02-25T08:40:59.635Z,8.28
2019-02-25T08:41:59.624Z,8.26
2019-02-25T08:42:59.609Z,8.33
2019-02-25T08:43:59.595Z,8.33
2019-02-25T08:44:59.592Z,8.33
2019-02-25T08:45:59.576Z,8.33
2019-02-25T08:46:59.563Z,8.33
2019-02-25T08:47:59.558Z,8.34
2019-02-25T08:48:59.547Z,8.37
2019-02-25T08:49:59.531Z,8.4
2019-02-25T08:51:00.996Z,8.47
2019-02-25T08:51:59.510Z,8.44
2019-02-25T08:52:59.497Z,8.53
2019-02-25T08:53:59.491Z,8.38
2019-02-25T08:54:59.480Z,8.48
2019-02-25T08:56:00.789Z,8.38
2019-02-25T08:56:59.456Z,8.43
2019-02-25T08:57:59.441Z,8.55
2019-02-25T08:58:59.432Z,8.56
2019-02-25T08:59:59.422Z,8.52
2019-02-25T09:00:59.412Z,8.56
2019-02-25T09:01:59.402Z,8.59
2019-02-25T09:02:59.390Z,8.66
2019-02-25T09:03:59.373Z,8.66
2019-02-25T09:04:59.368Z,8.66
2019-02-25T09:05:59.353Z,8.71
2019-02-25T09:06:59.341Z,8.77
2019-02-25T09:07:59.334Z,8.62
2019-02-25T09:08:59.319Z,8.76
2019-02-25T09:09:59.309Z,8.7
2019-02-25T09:10:59.300Z,8.73
2019-02-25T09:11:59.287Z,8.7
2019-02-25T09:12:59.279Z,8.68
2019-02-25T09:13:59.261Z,8.68
2019-02-25T09:14:59.254Z,8.7
2019-02-25T09:15:59.241Z,8.71
2019-02-25T09:16:59.257Z,8.8
2019-02-25T09:17:59.220Z,8.86
2019-02-25T09:19:00.373Z,8.8
2019-02-25T09:19:59.200Z,8.87
2019-02-25T09:20:59.190Z,8.89
2019-02-25T09:21:59.178Z,8.92
2019-02-25T09:22:58.922Z,9.01
2019-02-25T09:23:59.153Z,9.01
2019-02-25T09:24:59.141Z,9.08
2019-02-25T09:25:59.133Z,9.04
2019-02-25T09:26:59.122Z,9.1
2019-02-25T09:27:59.111Z,9.04
2019-02-25T09:28:59.914Z,9.18
2019-02-25T09:29:59.096Z,9.18
2019-02-25T09:30:59.078Z,9.24
2019-02-25T09:31:59.077Z,9.31
2019-02-25T09:32:59.056Z,9.36
2019-02-25T09:33:59.045Z,9.42
2019-02-25T09:34:59.033Z,9.43
2019-02-25T09:35:59.032Z,9.47
2019-02-25T09:36:59.021Z,9.5
2019-02-25T09:37:59.001Z,9.46
2019-02-25T09:38:59.265Z,9.5
2019-02-25T09:39:58.981Z,9.6
2019-02-25T09:40:58.971Z,9.57
2019-02-25T09:41:58.714Z,9.69
2019-02-25T09:42:58.952Z,9.74
2019-02-25T09:43:58.942Z,9.68
2019-02-25T09:45:00.745Z,9.83
2019-02-25T09:45:58.920Z,9.78
2019-02-25T09:46:58.911Z,9.79
2019-02-25T09:47:58.900Z,9.79
2019-02-25T09:48:58.886Z,9.99
2019-02-25T09:49:58.882Z,10.02
2019-02-25T09:50:58.868Z,10.04
2019-02-25T09:51:58.855Z,10.01
2019-02-25T09:52:58.851Z,10.09
2019-02-25T09:53:58.845Z,10.2
2019-02-25T09:54:58.822Z,10.25
2019-02-25T09:55:58.824Z,10.3
2019-02-25T09:56:58.855Z,10.32
2019-02-25T09:57:58.791Z,10.44
2019-02-25T09:58:58.783Z,10.38
2019-02-25T09:59:58.771Z,10.33
2019-02-25T10:00:58.772Z,10.42
2019-02-25T10:01:58.761Z,10.44
2019-02-25T10:02:58.756Z,10.47
2019-02-25T10:03:58.734Z,10.59
2019-02-25T10:04:58.722Z,10.59
2019-02-25T10:05:58.720Z,10.53
2019-02-25T10:07:07.089Z,10.63
2019-02-25T10:07:58.693Z,10.74
2019-02-25T10:08:58.685Z,10.81
2019-02-25T10:09:58.673Z,10.84
2019-02-25T10:10:58.670Z,10.91
2019-02-25T10:11:58.413Z,10.96
2019-02-25T10:12:58.647Z,11.02
2019-02-25T10:13:58.645Z,10.92
2019-02-25T10:14:58.626Z,11.11
2019-02-25T10:15:58.629Z,11.22
2019-02-25T10:16:58.792Z,11.28
2019-02-25T10:17:58.605Z,11.27
2019-02-25T10:18:58.597Z,11.36
2019-02-25T10:19:58.584Z,11.35
2019-02-25T10:20:58.593Z,11.29
2019-02-25T10:21:58.563Z,11.36
2019-02-25T10:22:58.553Z,11.32
2019-02-25T10:23:58.544Z,11.4
2019-02-25T10:24:58.535Z,11.4
2019-02-25T10:25:58.528Z,11.46
2019-02-25T10:26:58.515Z,11.44
2019-02-25T10:27:58.512Z,11.47
2019-02-25T10:28:58.502Z,11.46
2019-02-25T10:29:58.490Z,11.49
2019-02-25T10:30:58.480Z,11.51
2019-02-25T10:31:59.949Z,11.51
2019-02-25T10:33:00.629Z,11.55
2019-02-25T10:33:58.455Z,11.55
2019-02-25T10:34:58.442Z,11.61
2019-02-25T10:35:58.440Z,11.62
2019-02-25T10:36:58.430Z,11.61
2019-02-25T10:37:58.425Z,11.7
2019-02-25T10:38:58.479Z,11.64
2019-02-25T10:39:58.407Z,11.7
2019-02-25T10:40:59.358Z,11.64
2019-02-25T10:42:02.305Z,11.69
2019-02-25T10:42:58.370Z,11.78
2019-02-25T10:44:00.058Z,11.76
2019-02-25T10:44:58.357Z,11.83
2019-02-25T10:45:58.342Z,11.82
2019-02-25T10:46:58.338Z,11.85
2019-02-25T10:48:03.179Z,11.79
2019-02-25T10:49:11.009Z,11.85
2019-02-25T10:50:00.736Z,11.83
2019-02-25T10:51:02.548Z,11.88
2019-02-25T10:51:58.295Z,11.88
2019-02-25T10:53:07.947Z,11.8
2019-02-25T10:53:58.446Z,11.88
2019-02-25T10:55:00.715Z,11.9
2019-02-25T10:55:58.258Z,11.79
2019-02-25T10:57:00.462Z,11.88
2019-02-25T10:58:03.882Z,11.86
2019-02-25T10:59:01.787Z,11.9
2019-02-25T10:59:58.244Z,11.91
2019-02-25T11:00:58.210Z,11.95
2019-02-25T11:01:58.219Z,11.96
2019-02-25T11:03:00.740Z,11.98
2019-02-25T11:03:59.119Z,12.04
2019-02-25T11:05:00.246Z,12.01
2019-02-25T11:06:03.134Z,12.02
2019-02-25T11:06:58.904Z,11.98
2019-02-25T11:07:58.404Z,11.98
2019-02-25T11:08:58.139Z,11.98
2019-02-25T11:09:58.133Z,12.07
2019-02-25T11:10:59.702Z,12.05
2019-02-25T11:12:02.635Z,12.12
2019-02-25T11:13:04.135Z,12.12
2019-02-25T11:13:58.842Z,12.09
2019-02-25T11:14:58.088Z,12.07
2019-02-25T11:15:58.080Z,12.04
2019-02-25T11:16:58.069Z,12.1
2019-02-25T11:17:59.026Z,12.1
2019-02-25T11:19:03.226Z,12.14
2019-02-25T11:20:05.558Z,12.2
2019-02-25T11:20:58.955Z,12.2
2019-02-25T11:21:58.023Z,12.2
2019-02-25T11:22:58.018Z,12.27
2019-02-25T11:23:59.079Z,12.21
2019-02-25T11:25:00.298Z,12.31
2019-02-25T11:26:02.230Z,12.24
2019-02-25T11:27:01.047Z,12.24
2019-02-25T11:27:57.981Z,12.31
2019-02-25T11:28:57.965Z,12.29
2019-02-25T11:29:57.955Z,12.39
2019-02-25T11:30:58.595Z,12.34
2019-02-25T11:31:59.897Z,12.45
2019-02-25T11:33:02.375Z,12.38
2019-02-25T11:34:00.583Z,12.49
2019-02-25T11:34:57.920Z,12.49
2019-02-25T11:35:57.914Z,12.5
2019-02-25T11:37:01.986Z,12.47
2019-02-25T11:38:03.922Z,12.42
2019-02-25T11:38:59.723Z,12.49
2019-02-25T11:40:04.364Z,12.5
2019-02-25T11:40:59.731Z,12.42
2019-02-25T11:41:57.620Z,12.46
2019-02-25T11:42:57.848Z,12.5
2019-02-25T11:43:59.971Z,12.53
2019-02-25T11:45:04.357Z,12.53
2019-02-25T11:45:57.826Z,12.56
2019-02-25T11:46:57.832Z,12.56
2019-02-25T11:47:57.804Z,12.57
2019-02-25T11:48:57.799Z,12.65
2019-02-25T11:49:57.792Z,12.65
2019-02-25T11:50:57.780Z,12.67
2019-02-25T11:51:57.772Z,12.68
2019-02-25T11:52:57.761Z,12.64
2019-02-25T11:53:59.424Z,12.71
2019-02-25T11:54:57.747Z,12.68
2019-02-25T11:55:57.744Z,12.72
2019-02-25T11:56:57.738Z,12.75
2019-02-25T11:57:57.721Z,12.86
2019-02-25T11:58:57.715Z,12.77
2019-02-25T11:59:57.730Z,12.85
2019-02-25T12:00:57.701Z,12.86
2019-02-25T12:01:57.692Z,12.96
2019-02-25T12:02:57.688Z,12.89
2019-02-25T12:03:57.435Z,12.96
2019-02-25T12:04:57.670Z,12.93
2019-02-25T12:05:57.658Z,13.01
2019-02-25T12:06:57.647Z,13.01
2019-02-25T12:07:57.647Z,13.01
2019-02-25T12:08:57.639Z,13.01
2019-02-25T12:09:57.624Z,12.97
2019-02-25T12:10:57.616Z,13.01
2019-02-25T12:11:57.606Z,13.11
2019-02-25T12:12:57.597Z,13.08
2019-02-25T12:13:57.592Z,13.22
2019-02-25T12:14:57.591Z,13.22
2019-02-25T12:15:57.574Z,13.17
2019-02-25T12:16:57.574Z,13.14
2019-02-25T12:17:57.559Z,13.26
2019-02-25T12:18:57.551Z,13.2
2019-02-25T12:19:57.538Z,13.15
2019-02-25T12:20:57.529Z,13.15
2019-02-25T12:21:57.525Z,13.23
2019-02-25T12:22:57.517Z,13.25
2019-02-25T12:23:57.509Z,13.28
2019-02-25T12:24:57.514Z,13.23
2019-02-25T12:25:57.492Z,13.3
2019-02-25T12:26:57.484Z,13.38
2019-02-25T12:27:57.480Z,13.42
2019-02-25T12:28:57.468Z,13.44
2019-02-25T12:29:57.464Z,13.44
2019-02-25T12:30:57.456Z,13.39
2019-02-25T12:31:57.444Z,13.54
2019-02-25T12:32:57.437Z,13.52
2019-02-25T12:33:57.432Z,13.41
2019-02-25T12:34:57.459Z,13.54
2019-02-25T12:35:57.416Z,13.57
2019-02-25T12:36:57.417Z,13.59
2019-02-25T12:37:57.404Z,13.59
2019-02-25T12:38:57.393Z,13.57
2019-02-25T12:39:57.390Z,13.6
2019-02-25T12:40:57.383Z,13.62
2019-02-25T12:41:57.382Z,13.64
2019-02-25T12:42:57.366Z,13.6
2019-02-25T12:43:57.355Z,13.75
2019-02-25T12:44:57.344Z,13.73
2019-02-25T12:45:57.337Z,13.79
2019-02-25T12:46:57.330Z,13.84
2019-02-25T12:47:57.322Z,13.81
2019-02-25T12:48:57.321Z,13.82
2019-02-25T12:49:57.304Z,13.87
2019-02-25T12:50:57.298Z,14.02
2019-02-25T12:51:57.290Z,13.99
2019-02-25T12:52:57.286Z,14.02
2019-02-25T12:53:57.274Z,14.04
2019-02-25T12:54:57.269Z,14.07
2019-02-25T12:55:57.266Z,14.09
2019-02-25T12:56:57.313Z,14.06
2019-02-25T12:57:57.243Z,14.15
2019-02-25T12:58:57.237Z,14.06
2019-02-25T12:59:57.266Z,14.2
2019-02-25T13:00:56.983Z,14.17
2019-02-25T13:01:57.216Z,14.2
2019-02-25T13:02:57.281Z,14.22
2019-02-25T13:03:57.203Z,14.24
2019-02-25T13:04:57.195Z,14.25
2019-02-25T13:05:56.966Z,14.2
2019-02-25T13:06:57.193Z,14.2
2019-02-25T13:07:57.190Z,14.15
2019-02-25T13:08:57.168Z,14.17
2019-02-25T13:09:57.210Z,14.2
2019-02-25T13:10:57.152Z,14.2
2019-02-25T13:11:57.145Z,14.25
2019-02-25T13:12:57.138Z,14.18
2019-02-25T13:13:57.133Z,14.18
2019-02-25T13:14:57.159Z,14.21